createdAt,value
2018-09-28T00:01:44.096Z,95.12
2018-09-28T00:04:13.378Z,95.11
2018-09-28T00:06:42.645Z,95.55
2018-09-28T00:09:12.135Z,94.62
2018-09-28T00:11:41.412Z,95.27
2018-09-28T00:14:10.791Z,95.43
2018-09-28T00:16:40.042Z,95.22
2018-09-28T00:19:09.382Z,96.33
2018-09-28T00:21:39.114Z,96.37
2018-09-28T00:24:08.443Z,96.57
2018-09-28T00:26:37.919Z,96.75
2018-09-28T00:29:07.235Z,96.89
2018-09-28T00:31:36.506Z,96.71
2018-09-28T00:34:05.846Z,96.92
2018-09-28T00:36:35.132Z,97.75
2018-09-28T00:39:06.033Z,98.61
2018-09-28T00:41:35.109Z,98.54
2018-09-28T00:44:04.458Z,98.55
2018-09-28T00:46:33.722Z,98.87
2018-09-28T00:49:03.059Z,97.75
2018-09-28T00:51:32.340Z,98.14
2018-09-28T00:54:01.609Z,99.64
2018-09-28T00:56:30.862Z,99.49
2018-09-28T00:59:00.166Z,99.97
2018-09-28T01:01:29.523Z,100.00
2018-09-28T01:03:58.790Z,100.00
2018-09-28T01:06:28.111Z,100.00
2018-09-28T01:08:57.384Z,100.00
2018-09-28T01:11:26.663Z,100.00
2018-09-28T01:13:55.918Z,100.00
2018-09-28T01:16:25.191Z,100.00
2018-09-28T01:18:54.446Z,100.00
2018-09-28T01:21:23.739Z,100.00
2018-09-28T01:23:53.031Z,100.00
2018-09-28T01:26:22.286Z,100.00
2018-09-28T01:28:51.595Z,100.00
2018-09-28T01:31:20.869Z,100.00
2018-09-28T01:33:50.194Z,100.00
2018-09-28T01:36:19.494Z,100.00
2018-09-28T01:38:49.031Z,100.00
2018-09-28T01:41:18.319Z,100.00
2018-09-28T01:43:47.563Z,100.00
2018-09-28T01:46:16.814Z,100.00
2018-09-28T01:48:46.068Z,100.00
2018-09-28T01:51:15.350Z,100.00
2018-09-28T01:53:44.635Z,100.00
2018-09-28T01:56:13.972Z,100.00
2018-09-28T01:58:43.294Z,100.00
2018-09-28T02:01:12.618Z,100.00
2018-09-28T02:03:41.908Z,100.00
2018-09-28T02:06:11.742Z,100.00
2018-09-28T02:08:41.046Z,100.00
2018-09-28T02:11:10.354Z,100.00
2018-09-28T02:13:39.633Z,100.00
2018-09-28T02:16:09.016Z,100.00
2018-09-28T02:18:38.279Z,100.00
2018-09-28T02:21:07.787Z,100.00
2018-09-28T02:23:37.027Z,100.00
2018-09-28T02:26:06.303Z,100.00
2018-09-28T02:28:35.547Z,100.00
2018-09-28T02:31:04.882Z,100.00
2018-09-28T02:33:34.136Z,100.00
2018-09-28T02:36:03.420Z,100.00
2018-09-28T02:38:32.736Z,100.00
2018-09-28T02:41:02.076Z,100.00
2018-09-28T02:43:31.387Z,100.00
2018-09-28T02:46:00.663Z,100.00
2018-09-28T02:48:29.944Z,100.00
2018-09-28T02:50:59.210Z,100.00
2018-09-28T02:53:28.552Z,100.00
2018-09-28T02:55:57.842Z,100.00
2018-09-28T02:58:27.146Z,100.00
2018-09-28T03:00:56.473Z,100.00
2018-09-28T03:03:25.761Z,100.00
2018-09-28T03:05:55.078Z,100.00
2018-09-28T03:08:24.356Z,100.00
2018-09-28T03:10:53.671Z,100.00
2018-09-28T03:13:22.975Z,100.00
2018-09-28T03:15:52.263Z,100.00
2018-09-28T03:18:21.595Z,100.00
2018-09-28T03:20:50.924Z,100.00
2018-09-28T03:23:20.250Z,100.00
2018-09-28T03:25:49.546Z,100.00
2018-09-28T03:28:18.851Z,100.00
2018-09-28T03:30:48.122Z,100.00
2018-09-28T03:33:17.507Z,100.00
2018-09-28T03:35:47.098Z,100.00
2018-09-28T03:38:16.381Z,100.00
2018-09-28T03:40:45.757Z,100.00
2018-09-28T03:43:14.983Z,100.00
2018-09-28T03:45:44.236Z,100.00
2018-09-28T03:48:13.516Z,100.00
2018-09-28T03:50:42.814Z,100.00
2018-09-28T03:53:12.207Z,100.00
2018-09-28T03:55:41.525Z,100.00
2018-09-28T03:58:10.807Z,100.00
2018-09-28T04:00:40.061Z,100.00
2018-09-28T04:03:09.374Z,100.00
2018-09-28T04:05:38.619Z,100.00
2018-09-28T04:08:07.895Z,100.00
2018-09-28T04:10:37.202Z,100.00
2018-09-28T04:13:06.487Z,100.00
2018-09-28T04:15:35.723Z,100.00
2018-09-28T04:18:05.019Z,100.00
2018-09-28T04:20:34.775Z,100.00
2018-09-28T04:23:04.038Z,100.00
2018-09-28T04:25:33.273Z,100.00
2018-09-28T04:28:02.587Z,100.00
2018-09-28T04:30:31.842Z,100.00
2018-09-28T04:33:01.114Z,100.00
2018-09-28T04:35:30.355Z,100.00
2018-09-28T04:37:59.672Z,100.00
2018-09-28T04:40:28.987Z,100.00
2018-09-28T04:42:58.293Z,100.00
2018-09-28T04:45:27.633Z,100.00
2018-09-28T04:47:56.919Z,100.00
2018-09-28T04:50:26.231Z,100.00
2018-09-28T04:52:55.520Z,100.00
2018-09-28T04:55:24.906Z,100.00
2018-09-28T04:57:54.239Z,100.00
2018-09-28T05:00:23.496Z,100.00
2018-09-28T05:02:52.781Z,100.00
2018-09-28T05:05:22.098Z,100.00
2018-09-28T05:07:52.343Z,100.00
2018-09-28T05:10:21.697Z,100.00
2018-09-28T05:12:50.974Z,100.00
2018-09-28T05:15:20.337Z,100.00
2018-09-28T05:17:49.623Z,100.00
2018-09-28T05:20:18.948Z,100.00
2018-09-28T05:22:48.229Z,100.00
2018-09-28T05:25:17.564Z,100.00
2018-09-28T05:27:47.024Z,100.00
2018-09-28T05:30:16.475Z,100.00
2018-09-28T05:32:45.979Z,100.00
2018-09-28T05:35:15.249Z,100.00
2018-09-28T05:37:44.687Z,100.00
2018-09-28T05:40:14.016Z,100.00
2018-09-28T05:42:43.230Z,100.00
2018-09-28T05:45:12.586Z,100.00
2018-09-28T05:47:41.889Z,100.00
2018-09-28T05:50:11.197Z,100.00
2018-09-28T05:52:40.515Z,100.00
2018-09-28T05:55:09.913Z,100.00
2018-09-28T05:57:39.195Z,100.00
2018-09-28T06:00:13.797Z,100.00
2018-09-28T06:02:48.234Z,100.00
2018-09-28T06:05:22.693Z,100.00
2018-09-28T06:07:52.036Z,100.00
2018-09-28T06:10:21.349Z,100.00
2018-09-28T06:12:50.619Z,100.00
2018-09-28T06:15:20.038Z,100.00
2018-09-28T06:17:49.437Z,100.00
2018-09-28T06:20:18.775Z,100.00
2018-09-28T06:22:48.120Z,99.66
2018-09-28T06:25:17.473Z,98.92
2018-09-28T06:27:46.774Z,97.59
2018-09-28T06:30:16.416Z,98.41
2018-09-28T06:32:45.655Z,95.97
2018-09-28T06:35:15.019Z,95.18
2018-09-28T06:37:44.338Z,95.09
2018-09-28T06:40:13.658Z,94.78
2018-09-28T06:42:42.967Z,94.22
2018-09-28T06:45:12.307Z,93.12
2018-09-28T06:47:41.757Z,92.17
2018-09-28T06:50:11.051Z,91.26
2018-09-28T06:52:40.416Z,89.98
2018-09-28T06:55:09.721Z,88.93
2018-09-28T06:57:39.467Z,88.69
2018-09-28T07:00:09.432Z,87.29
2018-09-28T07:02:39.247Z,86.69
2018-09-28T07:05:08.555Z,85.98
2018-09-28T07:07:37.831Z,85.11
2018-09-28T07:10:07.535Z,85.51
2018-09-28T07:12:36.819Z,84.68
2018-09-28T07:15:06.570Z,83.74
2018-09-28T07:17:35.834Z,82.92
2018-09-28T07:20:05.305Z,82.99
2018-09-28T07:22:34.529Z,82.99
2018-09-28T07:25:03.829Z,81.96
2018-09-28T07:27:33.097Z,81.24
2018-09-28T07:30:02.410Z,80.53
2018-09-28T07:32:31.894Z,79.56
2018-09-28T07:35:01.226Z,79.30
2018-09-28T07:37:30.561Z,78.57
2018-09-28T07:39:59.851Z,78.36
2018-09-28T07:42:29.228Z,77.42
2018-09-28T07:44:58.608Z,75.95
2018-09-28T07:47:28.111Z,75.31
2018-09-28T07:49:57.425Z,75.14
2018-09-28T07:52:26.734Z,74.77
2018-09-28T07:54:56.080Z,74.18
2018-09-28T07:57:25.451Z,72.73
2018-09-28T07:59:54.839Z,72.58
2018-09-28T08:02:24.250Z,72.32
2018-09-28T08:04:53.703Z,72.04
2018-09-28T08:07:23.258Z,71.45
2018-09-28T08:09:52.586Z,71.57
2018-09-28T08:12:21.934Z,71.19
2018-09-28T08:14:51.252Z,70.41
2018-09-28T08:17:20.522Z,70.92
2018-09-28T08:19:49.812Z,71.45
2018-09-28T08:22:19.187Z,71.61
2018-09-28T08:24:48.797Z,70.29
2018-09-28T08:27:19.006Z,70.23
2018-09-28T08:29:48.378Z,70.03
2018-09-28T08:32:17.708Z,69.67
2018-09-28T08:34:47.076Z,70.30
2018-09-28T08:37:16.441Z,69.82
2018-09-28T08:39:45.766Z,69.58
2018-09-28T08:42:15.089Z,69.28
2018-09-28T08:44:44.464Z,68.64
2018-09-28T08:47:13.726Z,68.16
2018-09-28T08:49:43.106Z,68.11
2018-09-28T08:52:12.410Z,68.10
2018-09-28T08:54:41.747Z,67.03
2018-09-28T08:57:10.997Z,67.01
2018-09-28T08:59:40.235Z,65.81
2018-09-28T09:02:09.727Z,66.63
2018-09-28T09:04:38.990Z,66.25
2018-09-28T09:07:08.951Z,65.69
2018-09-28T09:09:38.216Z,66.51
2018-09-28T09:12:07.575Z,66.16
2018-09-28T09:14:36.878Z,64.63
2018-09-28T09:17:06.245Z,64.96
2018-09-28T09:19:35.534Z,63.99
2018-09-28T09:22:04.886Z,64.32
2018-09-28T09:24:34.127Z,64.33
2018-09-28T09:27:03.398Z,64.03
2018-09-28T09:29:32.714Z,63.52
2018-09-28T09:32:02.014Z,63.43
2018-09-28T09:34:31.308Z,62.58
2018-09-28T09:37:00.579Z,62.06
2018-09-28T09:39:29.995Z,60.94
2018-09-28T09:41:59.415Z,61.11
2018-09-28T09:44:28.820Z,60.23
2018-09-28T09:46:58.121Z,60.76
2018-09-28T09:49:27.535Z,60.13
2018-09-28T09:51:56.844Z,60.23
2018-09-28T09:54:26.135Z,59.02
2018-09-28T09:56:55.470Z,59.24
2018-09-28T09:59:24.793Z,58.58
2018-09-28T10:03:07.193Z,58.35
2018-09-28T10:05:36.554Z,57.57
2018-09-28T10:08:05.862Z,58.60
2018-09-28T10:10:35.166Z,58.13
2018-09-28T10:13:04.462Z,57.33
2018-09-28T10:15:33.763Z,57.29
2018-09-28T10:18:03.251Z,57.49
2018-09-28T10:20:32.782Z,57.44
2018-09-28T10:23:02.151Z,55.45
2018-09-28T10:25:31.567Z,55.81
2018-09-28T10:28:00.986Z,55.48
2018-09-28T10:30:30.230Z,55.55
2018-09-28T10:32:59.531Z,54.84
2018-09-28T10:35:28.814Z,53.90
2018-09-28T10:37:58.217Z,54.43
2018-09-28T10:40:27.525Z,52.93
2018-09-28T10:42:56.810Z,54.38
2018-09-28T10:45:26.162Z,52.82
2018-09-28T10:47:55.416Z,52.64
2018-09-28T10:50:24.730Z,52.85
2018-09-28T10:52:54.167Z,51.69
2018-09-28T10:55:23.399Z,52.96
2018-09-28T10:57:52.786Z,52.33
2018-09-28T11:00:22.115Z,50.87
2018-09-28T11:02:51.416Z,50.91
2018-09-28T11:05:20.695Z,50.19
2018-09-28T11:07:49.941Z,50.23
2018-09-28T11:10:19.239Z,49.87
2018-09-28T11:12:48.503Z,49.61
2018-09-28T11:15:17.839Z,48.48
2018-09-28T11:17:47.088Z,48.25
2018-09-28T11:20:16.397Z,47.67
2018-09-28T11:22:45.688Z,46.44
2018-09-28T11:25:15.095Z,47.33
2018-09-28T11:27:44.435Z,47.43
2018-09-28T11:30:13.829Z,46.53
2018-09-28T11:32:43.223Z,46.91
2018-09-28T11:35:12.541Z,46.30
2018-09-28T11:37:42.319Z,46.19
2018-09-28T11:40:11.666Z,46.50
2018-09-28T11:42:41.292Z,45.87
2018-09-28T11:45:10.621Z,45.89
2018-09-28T11:47:39.914Z,45.01
2018-09-28T11:50:09.702Z,44.23
2018-09-28T11:52:38.995Z,45.61
2018-09-28T11:55:08.354Z,45.67
2018-09-28T11:57:37.630Z,43.32
2018-09-28T12:00:07.070Z,43.94
2018-09-28T12:02:36.362Z,42.51
2018-09-28T12:05:05.931Z,42.06
2018-09-28T12:07:35.222Z,42.02
2018-09-28T12:10:04.588Z,42.87
2018-09-28T12:12:33.955Z,43.51
2018-09-28T12:15:03.202Z,41.61
2018-09-28T12:17:32.520Z,40.92
2018-09-28T12:20:01.840Z,41.76
2018-09-28T12:22:31.138Z,42.89
2018-09-28T12:25:00.457Z,43.61
2018-09-28T12:27:29.779Z,43.21
2018-09-28T12:29:59.167Z,41.49
2018-09-28T12:32:28.495Z,42.22
2018-09-28T12:34:57.855Z,41.47
2018-09-28T12:37:27.314Z,42.29
2018-09-28T12:39:56.683Z,42.36
2018-09-28T12:42:26.105Z,42.50
2018-09-28T12:44:55.544Z,42.81
2018-09-28T12:47:24.759Z,43.28
2018-09-28T12:49:54.028Z,42.10
2018-09-28T12:52:23.354Z,41.66
2018-09-28T12:54:52.807Z,41.69
2018-09-28T12:57:22.094Z,42.43
2018-09-28T12:59:51.640Z,42.07
2018-09-28T13:02:21.028Z,43.29
2018-09-28T13:04:50.317Z,44.04
2018-09-28T13:07:19.756Z,43.87
2018-09-28T13:09:49.079Z,44.16
2018-09-28T13:12:18.519Z,44.53
2018-09-28T13:14:47.878Z,43.94
2018-09-28T13:17:17.100Z,44.28
2018-09-28T13:19:46.435Z,45.00
2018-09-28T13:22:15.782Z,43.45
2018-09-28T13:24:45.192Z,43.14
2018-09-28T13:27:14.483Z,43.69
2018-09-28T13:29:43.858Z,43.38
2018-09-28T13:32:13.234Z,43.15
2018-09-28T13:34:42.492Z,43.01
2018-09-28T13:37:11.801Z,43.25
2018-09-28T13:39:41.090Z,42.32
2018-09-28T13:42:10.513Z,42.41
2018-09-28T13:44:39.926Z,41.19
2018-09-28T13:47:09.351Z,39.87
2018-09-28T13:49:38.667Z,40.57
2018-09-28T13:52:08.039Z,41.45
2018-09-28T13:54:37.294Z,41.31
2018-09-28T13:57:06.592Z,41.66
2018-09-28T13:59:35.873Z,41.80
2018-09-28T14:02:05.187Z,42.00
2018-09-28T14:04:34.491Z,43.23
2018-09-28T14:07:03.824Z,44.14
2018-09-28T14:09:33.006Z,44.97
2018-09-28T14:12:02.430Z,44.38
2018-09-28T14:14:31.722Z,44.64
2018-09-28T14:17:01.044Z,45.04
2018-09-28T14:19:30.367Z,45.01
2018-09-28T14:22:00.581Z,44.51
2018-09-28T14:24:29.987Z,44.25
2018-09-28T14:26:59.243Z,44.41
2018-09-28T14:29:28.585Z,44.27
2018-09-28T14:31:57.920Z,44.10
2018-09-28T14:34:27.319Z,43.05
2018-09-28T14:36:56.714Z,43.15
2018-09-28T14:39:26.037Z,43.42
2018-09-28T14:41:55.403Z,42.72
2018-09-28T14:44:24.722Z,43.26
2018-09-28T14:46:53.992Z,43.64
2018-09-28T14:49:23.344Z,43.42
2018-09-28T14:51:52.605Z,42.99
2018-09-28T14:54:22.088Z,43.31
2018-09-28T14:56:51.528Z,43.73
2018-09-28T14:59:21.016Z,44.18
2018-09-28T15:01:50.330Z,44.35
2018-09-28T15:04:19.687Z,44.65
2018-09-28T15:06:49.162Z,45.83
2018-09-28T15:09:18.422Z,46.13
2018-09-28T15:11:47.727Z,45.47
2018-09-28T15:14:17.168Z,45.75
2018-09-28T15:16:46.480Z,46.47
2018-09-28T15:19:15.777Z,47.29
2018-09-28T15:21:45.087Z,46.09
2018-09-28T15:24:14.412Z,46.50
2018-09-28T15:26:43.729Z,46.12
2018-09-28T15:29:13.118Z,46.57
2018-09-28T15:31:42.445Z,47.06
2018-09-28T15:34:11.767Z,47.93
2018-09-28T15:36:41.239Z,47.40
2018-09-28T15:39:12.387Z,48.63
2018-09-28T15:41:41.844Z,48.85
2018-09-28T15:44:11.218Z,49.06
2018-09-28T15:46:40.527Z,49.80
2018-09-28T15:49:09.878Z,49.90
2018-09-28T15:51:39.199Z,49.92
2018-09-28T15:54:08.805Z,50.17
2018-09-28T15:56:38.221Z,51.36
2018-09-28T15:59:07.460Z,51.22
2018-09-28T16:01:36.809Z,51.17
2018-09-28T16:04:06.174Z,51.69
2018-09-28T16:06:35.703Z,52.21
2018-09-28T16:09:07.285Z,52.39
2018-09-28T16:11:36.725Z,52.91
2018-09-28T16:14:06.059Z,53.73
2018-09-28T16:16:35.462Z,54.83
2018-09-28T16:19:04.886Z,55.32
2018-09-28T16:21:34.223Z,55.22
2018-09-28T16:24:03.620Z,55.36
2018-09-28T16:26:33.091Z,56.09
2018-09-28T16:29:02.452Z,56.64
2018-09-28T16:31:31.922Z,57.31
2018-09-28T16:34:01.257Z,57.44
2018-09-28T16:36:30.634Z,57.43
2018-09-28T16:38:59.995Z,58.31
2018-09-28T16:41:29.403Z,58.34
2018-09-28T16:43:58.714Z,57.36
2018-09-28T16:46:28.052Z,58.28
2018-09-28T16:48:57.416Z,57.99
2018-09-28T16:51:26.819Z,58.23
2018-09-28T16:53:56.221Z,57.37
2018-09-28T16:56:25.766Z,56.88
2018-09-28T16:58:55.225Z,55.76
2018-09-28T17:01:24.510Z,54.97
2018-09-28T17:03:53.889Z,55.89
2018-09-28T17:06:23.142Z,54.56
2018-09-28T17:08:52.451Z,55.05
2018-09-28T17:11:21.767Z,54.92
2018-09-28T17:13:51.180Z,54.74
2018-09-28T17:16:20.463Z,53.58
2018-09-28T17:18:49.811Z,51.93
2018-09-28T17:21:19.257Z,52.46
2018-09-28T17:23:48.570Z,52.62
2018-09-28T17:26:17.940Z,52.44
2018-09-28T17:28:47.407Z,52.94
2018-09-28T17:31:16.824Z,53.98
2018-09-28T17:33:46.223Z,54.11
2018-09-28T17:36:15.661Z,54.79
2018-09-28T17:38:44.946Z,55.55
2018-09-28T17:41:14.323Z,55.77
2018-09-28T17:43:43.591Z,56.80
2018-09-28T17:46:12.884Z,57.41
2018-09-28T17:48:42.142Z,58.63
2018-09-28T17:51:11.471Z,59.15
2018-09-28T17:53:40.806Z,59.82
2018-09-28T17:56:10.151Z,60.85
2018-09-28T17:58:39.501Z,61.02
2018-09-28T18:01:08.987Z,61.80
2018-09-28T18:03:38.361Z,63.21
2018-09-28T18:06:07.803Z,63.97
2018-09-28T18:08:37.186Z,64.23
2018-09-28T18:11:06.742Z,64.69
2018-09-28T18:13:36.349Z,65.66
2018-09-28T18:16:05.975Z,66.64
2018-09-28T18:18:35.482Z,67.37
2018-09-28T18:21:04.862Z,68.26
2018-09-28T18:23:34.346Z,69.09
2018-09-28T18:26:03.773Z,70.17
2018-09-28T18:28:33.274Z,70.95
2018-09-28T18:31:02.642Z,71.31
2018-09-28T18:33:32.203Z,71.82
2018-09-28T18:36:01.566Z,72.63
2018-09-28T18:38:30.907Z,73.53
2018-09-28T18:41:00.316Z,73.68
2018-09-28T18:43:29.755Z,74.83
2018-09-28T18:45:59.156Z,75.47
2018-09-28T18:48:28.593Z,75.69
2018-09-28T18:50:57.933Z,76.83
2018-09-28T18:53:27.270Z,77.08
2018-09-28T18:55:56.649Z,77.38
2018-09-28T18:58:26.090Z,77.55
2018-09-28T19:00:55.475Z,78.40
2018-09-28T19:03:24.990Z,79.06
2018-09-28T19:05:54.204Z,79.51
2018-09-28T19:08:23.539Z,80.07
2018-09-28T19:10:52.932Z,80.55
2018-09-28T19:13:22.262Z,80.64
2018-09-28T19:15:51.575Z,81.08
2018-09-28T19:18:20.862Z,81.12
2018-09-28T19:20:50.293Z,81.72
2018-09-28T19:23:19.545Z,82.14
2018-09-28T19:25:48.915Z,82.08
2018-09-28T19:28:18.316Z,82.27
2018-09-28T19:30:47.730Z,82.26
2018-09-28T19:33:16.963Z,82.92
2018-09-28T19:35:46.257Z,83.49
2018-09-28T19:38:15.642Z,83.94
2018-09-28T19:40:45.102Z,84.26
2018-09-28T19:43:16.129Z,84.63
2018-09-28T19:45:47.434Z,84.92
2018-09-28T19:48:17.856Z,85.12
2018-09-28T19:50:48.979Z,84.13
2018-09-28T19:53:20.668Z,85.29
2018-09-28T19:55:51.153Z,85.33
2018-09-28T19:58:21.198Z,85.60
2018-09-28T20:00:53.432Z,85.81
2018-09-28T20:03:25.291Z,85.59
2018-09-28T20:05:55.839Z,86.16
2018-09-28T20:11:08.451Z,86.07
2018-09-28T20:16:27.917Z,88.42
2018-09-28T20:18:59.711Z,90.43
2018-09-28T20:24:12.222Z,92.94
2018-09-28T20:26:45.206Z,93.29
2018-09-28T20:29:17.365Z,93.76
2018-09-28T20:34:29.845Z,96.05
2018-09-28T20:37:00.512Z,96.60
2018-09-28T20:39:31.411Z,97.98
2018-09-28T20:42:03.135Z,99.23
2018-09-28T20:44:34.282Z,100.00
2018-09-28T20:47:04.921Z,100.00
2018-09-28T20:49:35.031Z,100.00
2018-09-28T20:52:05.402Z,100.00
2018-09-28T20:54:36.255Z,100.00
2018-09-28T20:57:07.223Z,100.00
2018-09-28T20:59:39.668Z,100.00
2018-09-28T21:02:11.173Z,100.00
2018-09-28T21:04:41.753Z,100.00
2018-09-28T21:07:12.318Z,100.00
2018-09-28T21:09:43.560Z,100.00
2018-09-28T21:12:14.117Z,100.00
2018-09-28T21:14:44.303Z,100.00
2018-09-28T21:17:14.434Z,100.00
2018-09-28T21:19:46.321Z,100.00
2018-09-28T21:22:18.526Z,100.00
2018-09-28T21:24:49.160Z,100.00
2018-09-28T21:27:19.769Z,100.00
2018-09-28T21:29:51.374Z,100.00
2018-09-28T21:32:23.107Z,100.00
2018-09-28T21:34:54.802Z,100.00
2018-09-28T21:37:24.091Z,100.00
2018-09-28T21:39:53.346Z,100.00
2018-09-28T21:42:22.611Z,100.00
2018-09-28T21:44:51.862Z,100.00
2018-09-28T21:47:21.159Z,100.00
2018-09-28T21:49:50.435Z,100.00
2018-09-28T21:52:19.775Z,98.58
2018-09-28T21:54:49.019Z,98.40
2018-09-28T21:57:18.260Z,95.54
2018-09-28T21:59:47.563Z,94.58
2018-09-28T22:02:16.819Z,94.43
2018-09-28T22:04:46.194Z,95.63
2018-09-28T22:07:15.378Z,97.05
2018-09-28T22:09:44.658Z,97.19
2018-09-28T22:12:13.894Z,96.54
2018-09-28T22:14:43.183Z,94.63
2018-09-28T22:17:12.510Z,94.08
2018-09-28T22:19:41.768Z,94.41
2018-09-28T22:22:11.077Z,92.14
2018-09-28T22:24:40.434Z,92.60
2018-09-28T22:27:09.715Z,92.15
2018-09-28T22:29:38.983Z,91.52
2018-09-28T22:32:08.260Z,91.05
2018-09-28T22:34:37.540Z,92.24
2018-09-28T22:37:06.802Z,90.91
2018-09-28T22:39:36.078Z,91.74
2018-09-28T22:42:05.346Z,91.56
2018-09-28T22:44:34.677Z,93.80
2018-09-28T22:47:03.930Z,87.31
2018-09-28T22:49:33.721Z,88.06
2018-09-28T22:52:02.975Z,82.97
2018-09-28T22:54:32.282Z,82.48
2018-09-28T22:57:01.564Z,82.16
2018-09-28T22:59:30.871Z,82.47
2018-09-28T23:02:00.162Z,82.12
2018-09-28T23:04:29.483Z,82.11
2018-09-28T23:06:58.854Z,80.46
2018-09-28T23:09:28.232Z,79.82
2018-09-28T23:11:57.512Z,80.81
2018-09-28T23:14:26.825Z,78.83
2018-09-28T23:16:56.074Z,79.24
2018-09-28T23:19:25.375Z,78.60
2018-09-28T23:21:54.686Z,76.25
2018-09-28T23:24:24.006Z,76.62
2018-09-28T23:26:53.274Z,75.29
2018-09-28T23:29:22.554Z,74.08
2018-09-28T23:31:51.834Z,73.81
2018-09-28T23:34:21.110Z,72.23
2018-09-28T23:36:51.521Z,73.14
2018-09-28T23:39:20.867Z,72.34
2018-09-28T23:41:50.146Z,72.91
2018-09-28T23:44:19.146Z,70.71
2018-09-28T23:46:48.493Z,70.04
2018-09-28T23:49:17.723Z,69.44
2018-09-28T23:51:47.001Z,69.75
2018-09-28T23:54:16.263Z,70.16
2018-09-28T23:56:45.521Z,70.55
2018-09-28T23:59:14.771Z,71.26
